Time;durP1;ratioP1;P1;durP2;ratioP2;P2;SDS_P1;SDS_P2;PMS_P1;PMS_P2;Temp;Humidity;BMP_temperature;BMP_pressure;BME280_temperature;BME280_humidity;BME280_pressure;Samples;Min_cycle;Max_cycle;Signal;HPM_P1;HPM_P2
2024/02/01 00:00:29;;;;;;;64.40;43.33;;;;;;;;;;5053910;28;20036;-62
2024/02/01 00:02:55;;;;;;;62.75;43.28;;;;;;;;;;5052281;28;20041;-62
2024/02/01 00:05:21;;;;;;;60.73;43.50;;;;;;;;;;5054035;28;20017;-62
2024/02/01 00:07:47;;;;;;;59.93;42.63;;;;;;;;;;5053689;28;20103;-62
2024/02/01 00:10:13;;;;;;;68.50;46.17;;;;;;;;;;5053521;28;20074;-62
2024/02/01 00:12:39;;;;;;;67.78;44.97;;;;;;;;;;5052358;28;20033;-62
2024/02/01 00:15:27;;;;;;;65.65;44.20;;;;;;;;;;5053776;28;20122;-62
2024/02/01 00:17:53;;;;;;;65.27;45.07;;;;;;;;;;5044390;28;20040;-62
2024/02/01 00:20:24;;;;;;;63.60;45.00;;;;;;;;;;5053530;28;20031;-62
2024/02/01 00:22:50;;;;;;;70.73;45.37;;;;;;;;;;5053757;28;20025;-62
2024/02/01 00:25:16;;;;;;;69.87;45.23;;;;;;;;;;5053308;28;20149;-62
2024/02/01 00:27:42;;;;;;;70.07;45.40;;;;;;;;;;5048341;28;20470;-63
2024/02/01 00:30:08;;;;;;;67.57;44.43;;;;;;;;;;5049527;28;20025;-62
2024/02/01 00:32:34;;;;;;;63.10;45.47;;;;;;;;;;5050334;28;20027;-62
2024/02/01 00:35:00;;;;;;;70.73;46.23;;;;;;;;;;5046536;28;20120;-62
2024/02/01 00:37:26;;;;;;;68.53;46.03;;;;;;;;;;5048525;28;20033;-62
2024/02/01 00:39:52;;;;;;;66.93;45.43;;;;;;;;;;5040192;28;20026;-62
2024/02/01 00:42:19;;;;;;;64.77;48.30;;;;;;;;;;5047496;28;20088;-62
2024/02/01 00:44:45;;;;;;;68.43;46.47;;;;;;;;;;5034119;28;20021;-62
2024/02/01 00:47:10;;;;;;;67.63;45.67;;;;;;;;;;5038670;28;20416;-63
2024/02/01 00:49:36;;;;;;;62.97;44.57;;;;;;;;;;5051439;28;20025;-62
2024/02/01 00:52:03;;;;;;;65.53;46.77;;;;;;;;;;5052812;28;20359;-62
2024/02/01 00:54:29;;;;;;;68.17;45.23;;;;;;;;;;5043547;28;20386;-62
2024/02/01 00:56:55;;;;;;;63.37;45.43;;;;;;;;;;5044740;28;20033;-62
2024/02/01 00:59:21;;;;;;;68.17;46.87;;;;;;;;;;5052473;28;20021;-62
2024/02/01 01:01:47;;;;;;;59.33;46.17;;;;;;;;;;5051202;28;20063;-62
2024/02/01 01:04:15;;;;;;;69.00;46.17;;;;;;;;;;5052346;28;20462;-62
2024/02/01 01:06:42;;;;;;;71.57;47.10;;;;;;;;;;5052554;28;20013;-62
2024/02/01 01:09:11;;;;;;;65.43;45.23;;;;;;;;;;5052344;28;20052;-62
2024/02/01 01:11:37;;;;;;;67.47;47.87;;;;;;;;;;5052521;28;20029;-62
2024/02/01 01:14:03;;;;;;;65.13;46.93;;;;;;;;;;5052449;28;20467;-62
2024/02/01 01:16:30;;;;;;;69.57;48.63;;;;;;;;;;5050540;28;20028;-62
2024/02/01 01:18:56;;;;;;;70.77;46.37;;;;;;;;;;5043933;28;20394;-62
2024/02/01 01:21:22;;;;;;;70.50;47.87;;;;;;;;;;5051717;28;20025;-62
2024/02/01 01:23:48;;;;;;;70.97;49.17;;;;;;;;;;5047432;28;20032;-62
2024/02/01 01:26:26;;;;;;;74.10;51.07;;;;;;;;;;5052660;28;20029;-62
2024/02/01 01:28:52;;;;;;;69.50;47.77;;;;;;;;;;5052353;28;20074;-62
2024/02/01 01:31:18;;;;;;;67.07;48.20;;;;;;;;;;5052177;28;20037;-62
2024/02/01 01:33:44;;;;;;;75.67;49.53;;;;;;;;;;5052226;28;20036;-62
2024/02/01 01:36:10;;;;;;;72.10;47.97;;;;;;;;;;5050019;28;20020;-62
2024/02/01 01:38:37;;;;;;;73.23;49.93;;;;;;;;;;5050856;28;20115;-62
2024/02/01 01:41:04;;;;;;;71.33;50.83;;;;;;;;;;5052030;28;20032;-62
2024/02/01 01:43:30;;;;;;;67.97;47.97;;;;;;;;;;5050663;28;20016;-62
2024/02/01 01:46:05;;;;;;;69.93;48.87;;;;;;;;;;5052133;28;20512;-62
2024/02/01 01:48:35;;;;;;;75.60;49.67;;;;;;;;;;5052307;28;20025;-62
2024/02/01 01:51:01;;;;;;;78.80;52.20;;;;;;;;;;5051979;28;20383;-61
2024/02/01 01:53:27;;;;;;;74.43;50.57;;;;;;;;;;5046414;28;20025;-62
2024/02/01 01:55:54;;;;;;;74.33;51.17;;;;;;;;;;5051722;28;20021;-62
2024/02/01 02:08:12;;;;;;;78.93;50.47;;;;;;;;;;5018527;28;20088;-62
2024/02/01 02:10:39;;;;;;;70.43;50.70;;;;;;;;;;5018501;28;20030;-62
2024/02/01 02:13:05;;;;;;;74.53;50.87;;;;;;;;;;5031285;28;20025;-62
2024/02/01 02:15:32;;;;;;;75.60;50.87;;;;;;;;;;5030844;28;20021;-62
2024/02/01 02:17:58;;;;;;;71.60;49.93;;;;;;;;;;5031183;28;20069;-62
2024/02/01 02:20:26;;;;;;;71.53;48.43;;;;;;;;;;5031435;28;20119;-62
2024/02/01 02:22:54;;;;;;;69.43;49.03;;;;;;;;;;5031715;28;20076;-62
2024/02/01 02:25:20;;;;;;;69.13;48.33;;;;;;;;;;5027403;28;20105;-62
2024/02/01 02:36:57;;;;;;;64.93;45.57;;;;;;;;;;5024936;28;20125;-62
2024/02/01 02:39:23;;;;;;;73.77;46.47;;;;;;;;;;5035425;28;20108;-62
2024/02/01 02:41:49;;;;;;;64.30;45.50;;;;;;;;;;5035391;28;20464;-62
2024/02/01 02:44:15;;;;;;;69.83;46.73;;;;;;;;;;5035563;28;20036;-62
2024/02/01 02:46:41;;;;;;;72.73;49.93;;;;;;;;;;5035687;28;20021;-62
2024/02/01 02:49:10;;;;;;;65.57;45.43;;;;;;;;;;5035547;28;20332;-62
2024/02/01 02:51:39;;;;;;;70.47;47.63;;;;;;;;;;5015353;28;20067;-62
2024/02/01 02:54:05;;;;;;;69.20;47.77;;;;;;;;;;5015464;28;20029;-62
2024/02/01 02:56:31;;;;;;;61.80;44.57;;;;;;;;;;5033650;28;20340;-62
2024/02/01 02:58:57;;;;;;;63.20;46.43;;;;;;;;;;5035343;28;20021;-62
2024/02/01 03:01:23;;;;;;;63.77;45.23;;;;;;;;;;5034891;28;20464;-62
2024/02/01 03:03:49;;;;;;;65.97;44.57;;;;;;;;;;5035085;28;20017;-62
2024/02/01 03:06:15;;;;;;;66.37;46.73;;;;;;;;;;5034992;28;20091;-62
2024/02/01 03:08:42;;;;;;;63.90;45.20;;;;;;;;;;5039026;28;20060;-62
2024/02/01 03:11:10;;;;;;;67.53;45.80;;;;;;;;;;5054999;28;20036;-62
2024/02/01 03:13:45;;;;;;;66.27;44.77;;;;;;;;;;5054843;28;20017;-62
2024/02/01 03:16:18;;;;;;;62.70;44.10;;;;;;;;;;5053689;28;20055;-62
2024/02/01 03:18:49;;;;;;;58.90;40.83;;;;;;;;;;5054983;28;20548;-62
2024/02/01 03:21:15;;;;;;;63.80;42.17;;;;;;;;;;5054692;28;20027;-62
2024/02/01 03:23:45;;;;;;;55.50;41.03;;;;;;;;;;5054510;28;20471;-62
2024/02/01 03:26:11;;;;;;;57.63;40.37;;;;;;;;;;5054435;28;20025;-62
2024/02/01 03:28:41;;;;;;;57.27;41.03;;;;;;;;;;5053077;28;20025;-62
2024/02/01 03:31:07;;;;;;;56.43;40.17;;;;;;;;;;5053007;28;20577;-62
2024/02/01 03:33:39;;;;;;;58.13;40.77;;;;;;;;;;5054326;28;20481;-62
2024/02/01 03:36:09;;;;;;;53.00;37.67;;;;;;;;;;5054326;28;20082;-62
2024/02/01 03:38:37;;;;;;;56.27;40.93;;;;;;;;;;5053776;28;20048;-62
2024/02/01 03:41:03;;;;;;;51.00;39.07;;;;;;;;;;5035600;28;20076;-62
2024/02/01 03:43:29;;;;;;;59.10;40.57;;;;;;;;;;5042756;28;20037;-62
2024/02/01 03:45:56;;;;;;;54.37;39.07;;;;;;;;;;5054344;28;20025;-62
2024/02/01 03:48:22;;;;;;;59.00;39.67;;;;;;;;;;5054268;28;20017;-62
2024/02/01 03:50:49;;;;;;;59.27;40.97;;;;;;;;;;5054016;28;20471;-62
2024/02/01 03:53:16;;;;;;;61.77;40.53;;;;;;;;;;5053336;28;20025;-62
2024/02/01 03:55:42;;;;;;;56.33;40.00;;;;;;;;;;5052270;28;20419;-62
2024/02/01 03:58:08;;;;;;;56.13;39.67;;;;;;;;;;5053678;28;20033;-62
2024/02/01 04:00:34;;;;;;;57.97;40.27;;;;;;;;;;5043824;28;20033;-62
2024/02/01 04:03:04;;;;;;;56.30;39.00;;;;;;;;;;5048687;28;20105;-62
2024/02/01 04:05:36;;;;;;;57.70;38.43;;;;;;;;;;5054075;28;20111;-62
2024/02/01 04:08:04;;;;;;;60.03;40.70;;;;;;;;;;5053764;28;20044;-62
2024/02/01 04:10:30;;;;;;;55.77;38.83;;;;;;;;;;5053870;28;20098;-62
2024/02/01 04:12:57;;;;;;;55.20;39.53;;;;;;;;;;5053973;28;20112;-62
2024/02/01 04:15:23;;;;;;;53.33;37.30;;;;;;;;;;5039629;28;20488;-62
2024/02/01 04:17:49;;;;;;;62.03;39.07;;;;;;;;;;5053543;28;20037;-62
2024/02/01 04:20:15;;;;;;;54.30;38.23;;;;;;;;;;5052028;28;20052;-62
2024/02/01 04:25:45;;;;;;;56.23;36.97;;;;;;;;;;5045159;28;20032;-62
2024/02/01 04:28:14;;;;;;;50.37;34.57;;;;;;;;;;5051753;28;20451;-62
2024/02/01 04:30:43;;;;;;;45.73;33.30;;;;;;;;;;5053264;28;20028;-62
2024/02/01 04:33:09;;;;;;;43.17;32.47;;;;;;;;;;5053281;28;20028;-62
2024/02/01 04:35:35;;;;;;;44.23;31.57;;;;;;;;;;5053036;28;20029;-62
2024/02/01 04:38:01;;;;;;;48.27;33.10;;;;;;;;;;5052975;28;20037;-62
2024/02/01 04:40:27;;;;;;;46.07;32.60;;;;;;;;;;5053142;28;20150;-62
2024/02/01 04:42:55;;;;;;;44.80;31.20;;;;;;;;;;5051500;28;20119;-61
2024/02/01 04:45:21;;;;;;;43.60;31.80;;;;;;;;;;5053061;28;20364;-61
2024/02/01 04:47:47;;;;;;;39.63;28.20;;;;;;;;;;5038893;28;20025;-62
2024/02/01 04:50:13;;;;;;;38.03;27.73;;;;;;;;;;5051756;28;20478;-61
2024/02/01 04:52:40;;;;;;;40.67;27.83;;;;;;;;;;5052506;28;20020;-62
2024/02/01 04:55:06;;;;;;;39.37;27.80;;;;;;;;;;5052592;28;20021;-61
2024/02/01 04:57:32;;;;;;;44.83;27.77;;;;;;;;;;5052670;28;20111;-62
2024/02/01 04:59:58;;;;;;;41.53;29.10;;;;;;;;;;5052804;28;20041;-62
2024/02/01 05:02:24;;;;;;;43.47;27.30;;;;;;;;;;5052346;28;20115;-61
2024/02/01 05:04:50;;;;;;;36.93;27.20;;;;;;;;;;5052219;28;20017;-62
2024/02/01 05:07:16;;;;;;;38.13;26.93;;;;;;;;;;5048881;28;20437;-61
2024/02/01 05:09:43;;;;;;;45.00;29.40;;;;;;;;;;5047479;28;20057;-61
2024/02/01 05:12:09;;;;;;;39.00;27.93;;;;;;;;;;5048671;28;20028;-61
2024/02/01 05:14:36;;;;;;;39.10;27.53;;;;;;;;;;5046261;28;20553;-62
2024/02/01 05:17:02;;;;;;;39.87;26.53;;;;;;;;;;5050438;28;20429;-62
2024/02/01 05:19:28;;;;;;;39.43;26.00;;;;;;;;;;5049061;28;20022;-62
2024/02/01 05:21:55;;;;;;;37.10;24.07;;;;;;;;;;5043471;28;20124;-62
2024/02/01 05:24:24;;;;;;;36.57;25.70;;;;;;;;;;5051715;28;20131;-62
2024/02/01 05:26:51;;;;;;;32.83;24.77;;;;;;;;;;5039770;28;20032;-62
2024/02/01 05:29:24;;;;;;;36.33;24.77;;;;;;;;;;5046817;28;20033;-62
2024/02/01 05:31:54;;;;;;;32.83;24.17;;;;;;;;;;5043338;28;20110;-61
2024/02/01 05:37:23;;;;;;;32.50;22.13;;;;;;;;;;5037538;28;20048;-61
2024/02/01 05:39:50;;;;;;;37.93;25.23;;;;;;;;;;5042673;28;20032;-61
2024/02/01 05:42:16;;;;;;;36.40;25.03;;;;;;;;;;5051392;28;20459;-61
2024/02/01 05:44:44;;;;;;;36.90;26.13;;;;;;;;;;5051389;28;20025;-61
2024/02/01 05:47:10;;;;;;;38.30;26.63;;;;;;;;;;5051352;28;20437;-61
2024/02/01 05:49:36;;;;;;;36.33;26.03;;;;;;;;;;5051724;28;20120;-61
2024/02/01 05:52:05;;;;;;;40.00;27.83;;;;;;;;;;5051973;28;20021;-61
2024/02/01 05:54:32;;;;;;;39.77;28.23;;;;;;;;;;5049602;28;20021;-61
2024/02/01 05:56:59;;;;;;;38.30;27.10;;;;;;;;;;5046835;28;20435;-61
2024/02/01 05:59:25;;;;;;;38.93;25.17;;;;;;;;;;5042357;28;20052;-61
2024/02/01 06:01:52;;;;;;;35.37;26.60;;;;;;;;;;5050892;28;20043;-61
2024/02/01 06:04:18;;;;;;;38.17;26.00;;;;;;;;;;5051453;28;20028;-61
2024/02/01 06:06:45;;;;;;;36.93;25.10;;;;;;;;;;5036008;28;20099;-61
2024/02/01 06:09:11;;;;;;;39.10;26.50;;;;;;;;;;5051463;28;20080;-62
2024/02/01 06:11:50;;;;;;;36.90;25.37;;;;;;;;;;5050015;28;20048;-62
2024/02/01 06:14:16;;;;;;;35.87;24.70;;;;;;;;;;5038733;28;20123;-62
2024/02/01 06:16:43;;;;;;;36.23;25.47;;;;;;;;;;5051722;28;20033;-62
2024/02/01 06:19:09;;;;;;;38.57;25.83;;;;;;;;;;5050883;28;20121;-61
2024/02/01 06:21:35;;;;;;;33.43;24.40;;;;;;;;;;5042933;28;20025;-62
2024/02/01 06:24:01;;;;;;;37.10;25.20;;;;;;;;;;5047755;28;20021;-61
2024/02/01 06:26:28;;;;;;;34.17;25.00;;;;;;;;;;5040231;28;20501;-61
2024/02/01 06:29:00;;;;;;;38.30;25.43;;;;;;;;;;5049093;28;20044;-61
2024/02/01 06:31:27;;;;;;;33.73;25.50;;;;;;;;;;5045673;28;20025;-62
2024/02/01 06:33:54;;;;;;;35.70;24.60;;;;;;;;;;5039807;28;20052;-61
2024/02/01 06:36:34;;;;;;;33.47;23.40;;;;;;;;;;5032914;28;20040;-61
2024/02/01 06:44:25;;;;;;;36.07;23.07;;;;;;;;;;5049266;28;20041;-62
2024/02/01 06:55:06;;;;;;;35.55;23.15;;;;;;;;;;5050496;28;20390;-61
2024/02/01 06:57:48;;;;;;;32.97;23.53;;;;;;;;;;5051112;28;20040;-61
2024/02/01 07:03:13;;;;;;;33.70;23.77;;;;;;;;;;5047605;28;20033;-61
2024/02/01 07:13:47;;;;;;;34.27;22.53;;;;;;;;;;5051672;28;20502;-61
2024/02/01 07:16:21;;;;;;;37.10;24.80;;;;;;;;;;5054246;28;20510;-61
2024/02/01 07:18:57;;;;;;;31.40;23.07;;;;;;;;;;5054250;28;20401;-62
2024/02/01 07:21:34;;;;;;;41.00;23.53;;;;;;;;;;5054421;28;20032;-61
2024/02/01 07:24:27;;;;;;;34.30;22.73;;;;;;;;;;5048793;28;20124;-62
2024/02/01 07:57:36;;;;;;;40.07;25.10;;;;;;;;;;5052464;28;20075;-64
2024/02/01 08:00:02;;;;;;;38.47;23.70;;;;;;;;;;5050542;28;20545;-65
2024/02/01 08:07:58;;;;;;;41.25;25.65;;;;;;;;;;5053775;28;20344;-64
2024/02/01 08:10:24;;;;;;;36.33;24.87;;;;;;;;;;5053251;28;20052;-64
2024/02/01 08:12:50;;;;;;;36.80;25.03;;;;;;;;;;5053681;28;20036;-64
2024/02/01 08:15:19;;;;;;;36.83;24.43;;;;;;;;;;5051884;28;20048;-64
2024/02/01 08:17:49;;;;;;;38.13;24.10;;;;;;;;;;5053420;28;20112;-64
2024/02/01 08:20:15;;;;;;;39.17;25.33;;;;;;;;;;5053290;28;20021;-64
2024/02/01 08:22:41;;;;;;;37.70;25.20;;;;;;;;;;5053333;28;20060;-64
2024/02/01 08:25:14;;;;;;;44.80;28.13;;;;;;;;;;5051781;28;20021;-65
2024/02/01 08:27:52;;;;;;;47.93;29.67;;;;;;;;;;5052940;28;20020;-64
2024/02/01 08:30:19;;;;;;;41.70;27.60;;;;;;;;;;5053098;28;20025;-64
2024/02/01 08:32:45;;;;;;;43.53;29.53;;;;;;;;;;5052938;28;20111;-64
2024/02/01 08:35:12;;;;;;;44.17;30.03;;;;;;;;;;5052750;28;20021;-64
2024/02/01 08:37:39;;;;;;;44.63;31.03;;;;;;;;;;5050219;28;20062;-58
2024/02/01 08:40:16;;;;;;;45.50;31.73;;;;;;;;;;5042024;28;20116;-76
2024/02/01 08:42:42;;;;;;;41.43;29.17;;;;;;;;;;5052450;28;20017;-72
2024/02/01 08:45:08;;;;;;;40.93;30.53;;;;;;;;;;5052711;28;20108;-69
2024/02/01 08:47:36;;;;;;;45.30;31.33;;;;;;;;;;5053177;28;20434;-74
2024/02/01 08:50:06;;;;;;;43.67;31.10;;;;;;;;;;5049418;28;20109;-65
2024/02/01 08:52:33;;;;;;;41.87;28.50;;;;;;;;;;5052481;28;20056;-68
2024/02/01 08:55:00;;;;;;;42.57;31.23;;;;;;;;;;5050919;28;20032;-67
2024/02/01 08:57:26;;;;;;;41.83;30.37;;;;;;;;;;5052070;28;20067;-63
2024/02/01 08:59:53;;;;;;;46.53;31.87;;;;;;;;;;5051978;28;20390;-62
2024/02/01 09:02:19;;;;;;;42.30;30.23;;;;;;;;;;5052036;28;20082;-63
2024/02/01 09:04:52;;;;;;;45.73;31.03;;;;;;;;;;5052055;28;20029;-65
2024/02/01 09:07:19;;;;;;;42.13;30.67;;;;;;;;;;5051014;28;20036;-68
2024/02/01 09:09:45;;;;;;;41.50;30.40;;;;;;;;;;5049156;28;20051;-72
2024/02/01 09:12:29;;;;;;;43.77;30.50;;;;;;;;;;5051587;28;20107;-63
2024/02/01 09:14:55;;;;;;;40.33;28.23;;;;;;;;;;5048383;28;20509;-62
2024/02/01 09:17:23;;;;;;;43.23;31.23;;;;;;;;;;5051332;28;20351;-76
2024/02/01 09:19:49;;;;;;;38.77;29.63;;;;;;;;;;5051481;28;20483;-64
2024/02/01 09:22:15;;;;;;;40.47;27.93;;;;;;;;;;5045038;28;20133;-65
2024/02/01 09:24:41;;;;;;;37.63;28.63;;;;;;;;;;5045501;28;20063;-62
2024/02/01 09:27:06;;;;;;;37.37;27.80;;;;;;;;;;5046280;28;20103;-61
2024/02/01 09:29:34;;;;;;;39.13;27.10;;;;;;;;;;5049228;28;20025;-67
2024/02/01 09:32:00;;;;;;;38.97;26.80;;;;;;;;;;5050817;28;20363;-62
2024/02/01 09:34:26;;;;;;;36.50;24.53;;;;;;;;;;5048424;28;20035;-61
2024/02/01 09:36:53;;;;;;;38.80;25.73;;;;;;;;;;5049660;28;20029;-62
2024/02/01 09:39:19;;;;;;;35.97;23.20;;;;;;;;;;5042751;28;20029;-60
2024/02/01 09:41:46;;;;;;;35.57;23.33;;;;;;;;;;5049551;28;20025;-60
2024/02/01 09:44:13;;;;;;;31.97;22.90;;;;;;;;;;5049643;28;20104;-61
2024/02/01 09:46:39;;;;;;;29.33;22.07;;;;;;;;;;5047815;28;20404;-60
2024/02/01 09:49:06;;;;;;;32.73;23.80;;;;;;;;;;5050294;28;20025;-60
2024/02/01 09:51:32;;;;;;;39.40;25.20;;;;;;;;;;5050006;28;20044;-70
2024/02/01 09:53:58;;;;;;;34.47;24.63;;;;;;;;;;5050335;28;20020;-74
2024/02/01 09:56:25;;;;;;;38.87;27.13;;;;;;;;;;5046714;28;20043;-72
2024/02/01 09:58:51;;;;;;;43.37;26.80;;;;;;;;;;5046271;28;20638;-68
2024/02/01 10:01:17;;;;;;;41.67;28.73;;;;;;;;;;5046407;28;20025;-66
2024/02/01 10:03:44;;;;;;;43.67;29.33;;;;;;;;;;5045020;28;20425;-74
2024/02/01 10:06:10;;;;;;;50.20;32.83;;;;;;;;;;5048085;28;20029;-75
2024/02/01 10:08:38;;;;;;;49.13;33.93;;;;;;;;;;5043997;28;20044;-72
2024/02/01 10:11:04;;;;;;;53.77;34.50;;;;;;;;;;5046790;28;20196;-71
2024/02/01 10:13:33;;;;;;;51.47;35.07;;;;;;;;;;5048966;28;20514;-74
2024/02/01 10:16:00;;;;;;;51.63;33.67;;;;;;;;;;5049104;28;20029;-69
2024/02/01 10:18:26;;;;;;;56.67;38.53;;;;;;;;;;5050390;28;20043;-73
2024/02/01 10:20:59;;;;;;;61.33;40.43;;;;;;;;;;5050499;28;20029;-67
2024/02/01 10:23:25;;;;;;;61.93;40.47;;;;;;;;;;5050520;28;20076;-72
2024/02/01 10:25:55;;;;;;;62.60;40.93;;;;;;;;;;5050469;28;20033;-65
2024/02/01 10:28:23;;;;;;;62.60;40.07;;;;;;;;;;5050062;28;20182;-52
2024/02/01 10:30:50;;;;;;;59.93;39.90;;;;;;;;;;5049460;28;20029;-52
2024/02/01 10:33:17;;;;;;;66.47;41.23;;;;;;;;;;5039975;28;20082;-61
2024/02/01 10:35:47;;;;;;;64.53;42.00;;;;;;;;;;5050381;28;20025;-60
2024/02/01 10:38:15;;;;;;;63.00;43.20;;;;;;;;;;5045366;28;20044;-66
2024/02/01 10:40:41;;;;;;;69.07;44.27;;;;;;;;;;5048182;28;20111;-59
2024/02/01 10:43:07;;;;;;;68.33;44.27;;;;;;;;;;5050219;28;20039;-61
2024/02/01 10:48:47;;;;;;;70.27;45.67;;;;;;;;;;5047727;28;20060;-57
2024/02/01 10:51:13;;;;;;;65.37;44.47;;;;;;;;;;5054096;28;20025;-60
2024/02/01 10:53:44;;;;;;;66.93;45.83;;;;;;;;;;5048797;28;20036;-60
2024/02/01 10:56:16;;;;;;;73.83;46.53;;;;;;;;;;5053572;28;20056;-60
2024/02/01 10:58:53;;;;;;;68.40;44.87;;;;;;;;;;5055995;28;20572;-55
2024/02/01 11:01:24;;;;;;;74.82;45.58;;;;;;;;;;5053034;28;20022;-60
2024/02/01 11:03:50;;;;;;;70.20;45.20;;;;;;;;;;5053226;28;20048;-59
2024/02/01 11:06:17;;;;;;;68.60;46.30;;;;;;;;;;5053520;28;20544;-60
2024/02/01 11:08:46;;;;;;;70.33;45.93;;;;;;;;;;5052853;28;20115;-61
2024/02/01 11:11:18;;;;;;;71.90;46.67;;;;;;;;;;5051991;28;20025;-61
2024/02/01 11:14:10;;;;;;;73.23;46.93;;;;;;;;;;5053472;28;20098;-71
2024/02/01 11:16:46;;;;;;;75.47;48.57;;;;;;;;;;5035682;28;20040;-63
2024/02/01 11:19:12;;;;;;;74.70;48.25;;;;;;;;;;5044255;28;20356;-62
2024/02/01 11:21:51;;;;;;;69.00;46.73;;;;;;;;;;5054168;28;20032;-64
2024/02/01 11:24:27;;;;;;;72.28;48.10;;;;;;;;;;5045852;28;20021;-65
2024/02/01 11:26:57;;;;;;;68.03;45.30;;;;;;;;;;5054274;28;20021;-62
2024/02/01 11:29:27;;;;;;;72.88;44.53;;;;;;;;;;5040284;28;20013;-61
2024/02/01 11:31:58;;;;;;;70.90;45.55;;;;;;;;;;5052932;28;20120;-60
2024/02/01 11:34:28;;;;;;;69.18;42.67;;;;;;;;;;5052593;28;20017;-69
2024/02/01 11:36:54;;;;;;;67.28;43.28;;;;;;;;;;5052945;28;20024;-69
2024/02/01 11:39:21;;;;;;;69.30;43.53;;;;;;;;;;5052729;28;20339;-61
2024/02/01 11:41:51;;;;;;;67.90;44.77;;;;;;;;;;5053025;28;20024;-64
2024/02/01 11:44:18;;;;;;;60.15;40.03;;;;;;;;;;5045362;28;20033;-54
2024/02/01 11:46:48;;;;;;;62.95;41.60;;;;;;;;;;5052692;28;20109;-57
2024/02/01 11:49:16;;;;;;;56.67;38.63;;;;;;;;;;5052403;28;20063;-51
2024/02/01 11:51:45;;;;;;;53.23;34.90;;;;;;;;;;5052738;28;20511;-53
2024/02/01 11:54:12;;;;;;;54.30;34.47;;;;;;;;;;5053265;28;20036;-61
2024/02/01 11:56:38;;;;;;;51.03;33.83;;;;;;;;;;5052265;28;20021;-59
2024/02/01 11:59:06;;;;;;;53.50;33.35;;;;;;;;;;5052466;28;20036;-60
2024/02/01 12:01:33;;;;;;;49.83;30.70;;;;;;;;;;5051251;28;20369;-66
2024/02/01 12:03:59;;;;;;;51.97;32.15;;;;;;;;;;5052098;28;20423;-64
2024/02/01 12:06:25;;;;;;;47.97;31.40;;;;;;;;;;5050979;28;20021;-65
2024/02/01 12:08:52;;;;;;;42.58;29.58;;;;;;;;;;5052695;28;21009;-64
2024/02/01 12:11:25;;;;;;;43.70;29.92;;;;;;;;;;5048598;28;20021;-65
2024/02/01 12:13:52;;;;;;;43.27;29.17;;;;;;;;;;5041422;28;20357;-64
2024/02/01 12:16:30;;;;;;;48.30;29.20;;;;;;;;;;5051932;28;20037;-65
2024/02/01 12:18:58;;;;;;;44.72;28.50;;;;;;;;;;5043307;28;20124;-65
2024/02/01 12:21:27;;;;;;;43.47;28.42;;;;;;;;;;5053017;28;20108;-65
2024/02/01 12:23:56;;;;;;;47.35;31.33;;;;;;;;;;5048899;28;20113;-65
2024/02/01 12:26:23;;;;;;;48.15;30.33;;;;;;;;;;5052959;28;20032;-65
2024/02/01 12:28:50;;;;;;;43.72;29.23;;;;;;;;;;5052641;28;20021;-64
2024/02/01 12:31:16;;;;;;;56.25;32.38;;;;;;;;;;5051223;28;20025;-67
2024/02/01 12:33:42;;;;;;;48.78;31.50;;;;;;;;;;5051915;28;20033;-64
2024/02/01 12:36:08;;;;;;;56.58;33.92;;;;;;;;;;5050524;28;20512;-64
2024/02/01 12:38:41;;;;;;;53.30;32.25;;;;;;;;;;5051920;28;20499;-65
2024/02/01 12:41:10;;;;;;;50.70;32.05;;;;;;;;;;5051369;28;20019;-60
2024/02/01 12:43:36;;;;;;;54.58;30.80;;;;;;;;;;5048870;28;20095;-60
2024/02/01 12:46:02;;;;;;;52.92;29.75;;;;;;;;;;5052443;28;20033;-59
2024/02/01 12:48:28;;;;;;;54.25;29.10;;;;;;;;;;5051856;28;20033;-56
2024/02/01 12:50:55;;;;;;;48.53;27.48;;;;;;;;;;5049728;28;20035;-61
2024/02/01 12:53:21;;;;;;;49.95;27.73;;;;;;;;;;5049910;28;20021;-68
2024/02/01 12:55:48;;;;;;;42.58;26.13;;;;;;;;;;5049915;28;20033;-62
2024/02/01 12:58:18;;;;;;;45.30;27.75;;;;;;;;;;5049737;28;20398;-66
2024/02/01 13:00:44;;;;;;;41.65;24.52;;;;;;;;;;5050974;28;20033;-64
2024/02/01 13:03:11;;;;;;;42.15;26.15;;;;;;;;;;5051117;28;20122;-68
2024/02/01 13:05:37;;;;;;;42.85;25.92;;;;;;;;;;5051025;28;20059;-68
2024/02/01 13:08:06;;;;;;;46.20;25.92;;;;;;;;;;5051442;28;20018;-62
2024/02/01 13:10:38;;;;;;;45.83;26.70;;;;;;;;;;5050293;28;20056;-58
2024/02/01 13:13:08;;;;;;;48.70;26.92;;;;;;;;;;5048829;28;20033;-51
2024/02/01 13:15:34;;;;;;;43.30;26.55;;;;;;;;;;5051576;28;20037;-52
2024/02/01 13:18:00;;;;;;;45.78;26.38;;;;;;;;;;5050764;28;20457;-50
2024/02/01 13:20:29;;;;;;;43.30;25.80;;;;;;;;;;5046866;28;20367;-65
2024/02/01 13:22:55;;;;;;;39.28;25.25;;;;;;;;;;5051327;28;20447;-56
2024/02/01 13:25:21;;;;;;;45.97;27.00;;;;;;;;;;5049712;28;20136;-64
2024/02/01 13:27:48;;;;;;;47.22;27.02;;;;;;;;;;5050032;28;20390;-63
2024/02/01 13:30:14;;;;;;;41.15;25.50;;;;;;;;;;5049735;28;20021;-65
2024/02/01 13:32:41;;;;;;;40.90;24.52;;;;;;;;;;5050938;28;20112;-58
2024/02/01 13:35:07;;;;;;;39.13;24.88;;;;;;;;;;5049598;28;20320;-64
2024/02/01 13:37:34;;;;;;;42.47;24.38;;;;;;;;;;5050799;28;20044;-59
2024/02/01 13:40:07;;;;;;;39.78;25.00;;;;;;;;;;5046331;28;20033;-57
2024/02/01 13:42:33;;;;;;;43.20;24.85;;;;;;;;;;5048121;28;20351;-59
2024/02/01 13:45:02;;;;;;;42.00;23.75;;;;;;;;;;5046355;28;20043;-45
2024/02/01 13:47:28;;;;;;;43.53;24.73;;;;;;;;;;5050823;28;20036;-62
2024/02/01 13:49:54;;;;;;;37.33;23.40;;;;;;;;;;5050856;28;20029;-57
2024/02/01 13:52:20;;;;;;;38.40;23.60;;;;;;;;;;5049607;28;20025;-58
2024/02/01 14:04:15;;;;;;;42.55;23.52;;;;;;;;;;5044652;28;20391;-52
2024/02/01 14:06:41;;;;;;;38.70;24.33;;;;;;;;;;5045725;28;20040;-61
2024/02/01 14:09:09;;;;;;;39.97;25.15;;;;;;;;;;5050871;28;20045;-63
2024/02/01 14:11:38;;;;;;;40.22;24.83;;;;;;;;;;5051025;28;20021;-63
2024/02/01 14:14:08;;;;;;;46.45;26.27;;;;;;;;;;5048572;28;20521;-53
2024/02/01 14:16:35;;;;;;;40.83;26.00;;;;;;;;;;5050070;28;20029;-62
2024/02/01 14:19:01;;;;;;;39.30;25.98;;;;;;;;;;5049519;28;20090;-63
2024/02/01 14:21:27;;;;;;;43.35;26.30;;;;;;;;;;5050585;28;20029;-62
2024/02/01 14:23:54;;;;;;;43.05;27.55;;;;;;;;;;5052674;28;20032;-61
2024/02/01 14:26:22;;;;;;;40.35;27.00;;;;;;;;;;5054636;28;20506;-61
2024/02/01 14:28:48;;;;;;;44.38;28.80;;;;;;;;;;5054877;28;20023;-67
2024/02/01 14:31:14;;;;;;;44.10;28.58;;;;;;;;;;5055258;28;20017;-65
2024/02/01 14:33:40;;;;;;;45.72;28.02;;;;;;;;;;5053200;28;20029;-65
2024/02/01 14:36:06;;;;;;;44.08;27.85;;;;;;;;;;5046730;28;20366;-56
2024/02/01 14:38:33;;;;;;;41.60;28.42;;;;;;;;;;5052550;28;20056;-56
2024/02/01 14:40:59;;;;;;;49.10;28.65;;;;;;;;;;5050633;28;20021;-55
2024/02/01 14:43:25;;;;;;;38.97;26.73;;;;;;;;;;5047292;28;20064;-61
2024/02/01 14:45:52;;;;;;;47.42;28.08;;;;;;;;;;5052022;28;20029;-56
2024/02/01 14:48:18;;;;;;;42.40;28.00;;;;;;;;;;5050130;28;20055;-55
2024/02/01 14:50:44;;;;;;;37.78;26.92;;;;;;;;;;5051333;28;20061;-56
2024/02/01 14:53:11;;;;;;;41.53;26.73;;;;;;;;;;5047323;28;20398;-62
2024/02/01 14:55:37;;;;;;;41.75;26.83;;;;;;;;;;5055176;28;20077;-62
2024/02/01 14:58:03;;;;;;;44.20;28.10;;;;;;;;;;5054160;28;20051;-62
2024/02/01 15:00:32;;;;;;;41.20;26.77;;;;;;;;;;5054559;28;20025;-61
2024/02/01 15:02:58;;;;;;;43.45;27.55;;;;;;;;;;5054405;28;20025;-66
2024/02/01 15:05:25;;;;;;;48.47;33.92;;;;;;;;;;5052566;28;20033;-67
2024/02/01 15:10:54;;;;;;;64.43;42.47;;;;;;;;;;5039382;28;20124;-62
2024/02/01 15:13:20;;;;;;;67.40;42.03;;;;;;;;;;5051870;28;20112;-63
2024/02/01 15:15:46;;;;;;;69.63;44.25;;;;;;;;;;5053340;28;20031;-60
2024/02/01 15:18:12;;;;;;;65.95;45.13;;;;;;;;;;5053275;28;20041;-60
2024/02/01 15:23:42;;;;;;;63.75;43.55;;;;;;;;;;5049750;28;20176;-60
2024/02/01 15:26:09;;;;;;;64.65;43.63;;;;;;;;;;5053362;28;20052;-61
2024/02/01 15:28:39;;;;;;;66.55;46.60;;;;;;;;;;5053233;28;20087;-61
2024/02/01 15:31:05;;;;;;;71.72;45.88;;;;;;;;;;5052605;28;20037;-62
2024/02/01 15:33:31;;;;;;;62.78;44.38;;;;;;;;;;5051904;28;20529;-60
2024/02/01 15:45:08;;;;;;;65.13;45.72;;;;;;;;;;5038920;28;20091;-68
2024/02/01 15:47:36;;;;;;;66.72;46.05;;;;;;;;;;5053011;28;20035;-61
2024/02/01 15:50:03;;;;;;;69.82;47.47;;;;;;;;;;5051092;28;20493;-60
2024/02/01 15:52:29;;;;;;;77.63;51.63;;;;;;;;;;5052545;28;20059;-56
2024/02/01 15:54:55;;;;;;;69.75;48.30;;;;;;;;;;5049847;28;20064;-47
2024/02/01 15:57:21;;;;;;;68.25;50.20;;;;;;;;;;5052693;28;20037;-47
2024/02/01 15:59:49;;;;;;;69.68;49.50;;;;;;;;;;5049404;28;20079;-56
2024/02/01 16:02:15;;;;;;;72.15;51.00;;;;;;;;;;5053920;28;20063;-50
2024/02/01 16:04:41;;;;;;;76.35;50.65;;;;;;;;;;5051936;28;20101;-63
2024/02/01 16:07:07;;;;;;;75.47;51.42;;;;;;;;;;5052797;28;20536;-60
2024/02/01 16:09:39;;;;;;;75.47;51.10;;;;;;;;;;5052286;28;20029;-63
2024/02/01 16:12:05;;;;;;;79.63;53.65;;;;;;;;;;5052628;28;20029;-62